sensor_id;sensor_type;location;lat;lon;timestamp;temperature;humidity
68766;DHT22;55756;45.582;11.484;2023-04-25T00:01:46;16.00;66.30
68766;DHT22;55756;45.582;11.484;2023-04-25T00:04:12;16.00;66.40
68766;DHT22;55756;45.582;11.484;2023-04-25T00:06:38;16.00;66.50
68766;DHT22;55756;45.582;11.484;2023-04-25T00:09:05;15.90;66.60
68766;DHT22;55756;45.582;11.484;2023-04-25T00:11:37;16.00;66.60
68766;DHT22;55756;45.582;11.484;2023-04-25T00:14:04;16.00;66.60
68766;DHT22;55756;45.582;11.484;2023-04-25T00:16:30;15.90;66.70
68766;DHT22;55756;45.582;11.484;2023-04-25T00:18:59;15.90;67.10
68766;DHT22;55756;45.582;11.484;2023-04-25T00:21:27;16.00;67.10
68766;DHT22;55756;45.582;11.484;2023-04-25T00:23:55;15.90;67.20
68766;DHT22;55756;45.582;11.484;2023-04-25T00:26:21;15.90;67.10
68766;DHT22;55756;45.582;11.484;2023-04-25T00:28:47;15.90;67.00
68766;DHT22;55756;45.582;11.484;2023-04-25T00:31:13;15.90;67.00
68766;DHT22;55756;45.582;11.484;2023-04-25T00:33:39;15.90;67.10
68766;DHT22;55756;45.582;11.484;2023-04-25T00:36:06;15.90;67.20
68766;DHT22;55756;45.582;11.484;2023-04-25T00:38:32;15.90;67.10
68766;DHT22;55756;45.582;11.484;2023-04-25T00:40:59;15.90;67.00
68766;DHT22;55756;45.582;11.484;2023-04-25T00:43:27;15.90;67.10
68766;DHT22;55756;45.582;11.484;2023-04-25T00:45:53;15.90;66.90
68766;DHT22;55756;45.582;11.484;2023-04-25T00:48:22;15.90;67.10
68766;DHT22;55756;45.582;11.484;2023-04-25T00:50:53;15.90;67.00
68766;DHT22;55756;45.582;11.484;2023-04-25T00:53:22;15.90;67.10
68766;DHT22;55756;45.582;11.484;2023-04-25T00:55:48;15.90;67.00
68766;DHT22;55756;45.582;11.484;2023-04-25T00:58:20;15.90;67.10
68766;DHT22;55756;45.582;11.484;2023-04-25T01:00:48;15.90;67.20
68766;DHT22;55756;45.582;11.484;2023-04-25T01:03:16;15.90;67.30
68766;DHT22;55756;45.582;11.484;2023-04-25T01:05:43;15.90;67.30
68766;DHT22;55756;45.582;11.484;2023-04-25T01:08:09;15.90;67.40
68766;DHT22;55756;45.582;11.484;2023-04-25T01:10:37;15.90;67.30
68766;DHT22;55756;45.582;11.484;2023-04-25T01:13:03;15.90;67.10
68766;DHT22;55756;45.582;11.484;2023-04-25T01:15:30;15.80;67.10
68766;DHT22;55756;45.582;11.484;2023-04-25T01:17:58;15.80;67.20
68766;DHT22;55756;45.582;11.484;2023-04-25T01:20:26;15.80;67.00
68766;DHT22;55756;45.582;11.484;2023-04-25T01:22:55;15.80;66.90
68766;DHT22;55756;45.582;11.484;2023-04-25T01:25:21;15.80;66.80
68766;DHT22;55756;45.582;11.484;2023-04-25T01:27:48;15.80;66.60
68766;DHT22;55756;45.582;11.484;2023-04-25T01:30:15;15.80;66.70
68766;DHT22;55756;45.582;11.484;2023-04-25T01:32:43;15.80;66.70
68766;DHT22;55756;45.582;11.484;2023-04-25T01:35:11;15.80;66.50
68766;DHT22;55756;45.582;11.484;2023-04-25T01:37:42;15.70;66.60
68766;DHT22;55756;45.582;11.484;2023-04-25T01:40:12;15.70;66.70
68766;DHT22;55756;45.582;11.484;2023-04-25T01:42:40;15.60;66.70
68766;DHT22;55756;45.582;11.484;2023-04-25T01:45:08;15.60;66.70
68766;DHT22;55756;45.582;11.484;2023-04-25T01:47:35;15.60;66.80
68766;DHT22;55756;45.582;11.484;2023-04-25T01:50:02;15.60;66.90
68766;DHT22;55756;45.582;11.484;2023-04-25T01:52:30;15.60;67.00
68766;DHT22;55756;45.582;11.484;2023-04-25T01:54:57;15.60;67.10
68766;DHT22;55756;45.582;11.484;2023-04-25T01:57:27;15.70;67.20
68766;DHT22;55756;45.582;11.484;2023-04-25T02:00:02;15.70;67.40
68766;DHT22;55756;45.582;11.484;2023-04-25T02:02:40;15.70;67.50
68766;DHT22;55756;45.582;11.484;2023-04-25T02:05:17;15.70;67.20
68766;DHT22;55756;45.582;11.484;2023-04-25T02:07:45;15.60;67.20
68766;DHT22;55756;45.582;11.484;2023-04-25T02:10:10;15.60;67.30
68766;DHT22;55756;45.582;11.484;2023-04-25T02:12:49;15.60;67.40
68766;DHT22;55756;45.582;11.484;2023-04-25T02:15:47;15.60;67.50
68766;DHT22;55756;45.582;11.484;2023-04-25T02:18:18;15.60;67.70
68766;DHT22;55756;45.582;11.484;2023-04-25T02:20:46;15.60;67.80
68766;DHT22;55756;45.582;11.484;2023-04-25T02:23:12;15.70;67.70
68766;DHT22;55756;45.582;11.484;2023-04-25T02:25:39;15.70;67.60
68766;DHT22;55756;45.582;11.484;2023-04-25T02:28:04;15.70;67.60
68766;DHT22;55756;45.582;11.484;2023-04-25T02:30:31;15.70;67.50
68766;DHT22;55756;45.582;11.484;2023-04-25T02:32:56;15.70;67.50
68766;DHT22;55756;45.582;11.484;2023-04-25T02:35:22;15.70;67.40
68766;DHT22;55756;45.582;11.484;2023-04-25T02:37:48;15.70;67.50
68766;DHT22;55756;45.582;11.484;2023-04-25T02:40:14;15.70;67.50
68766;DHT22;55756;45.582;11.484;2023-04-25T02:42:40;15.70;67.30
68766;DHT22;55756;45.582;11.484;2023-04-25T02:45:07;15.70;67.30
68766;DHT22;55756;45.582;11.484;2023-04-25T02:47:35;15.70;67.30
68766;DHT22;55756;45.582;11.484;2023-04-25T02:50:00;15.70;67.30
68766;DHT22;55756;45.582;11.484;2023-04-25T02:52:26;15.70;67.10
68766;DHT22;55756;45.582;11.484;2023-04-25T02:54:59;15.70;67.20
68766;DHT22;55756;45.582;11.484;2023-04-25T02:57:26;15.70;67.20
68766;DHT22;55756;45.582;11.484;2023-04-25T02:59:52;15.60;67.10
68766;DHT22;55756;45.582;11.484;2023-04-25T03:02:18;15.60;67.20
68766;DHT22;55756;45.582;11.484;2023-04-25T03:04:44;15.60;67.20
68766;DHT22;55756;45.582;11.484;2023-04-25T03:07:09;15.70;67.10
68766;DHT22;55756;45.582;11.484;2023-04-25T03:09:35;15.70;67.10
68766;DHT22;55756;45.582;11.484;2023-04-25T03:12:02;15.60;67.40
68766;DHT22;55756;45.582;11.484;2023-04-25T03:14:28;15.60;67.70
68766;DHT22;55756;45.582;11.484;2023-04-25T03:16:54;15.50;67.80
68766;DHT22;55756;45.582;11.484;2023-04-25T03:19:19;15.60;67.80
68766;DHT22;55756;45.582;11.484;2023-04-25T03:21:47;15.60;67.90
68766;DHT22;55756;45.582;11.484;2023-04-25T03:24:13;15.60;67.80
68766;DHT22;55756;45.582;11.484;2023-04-25T03:26:38;15.60;67.80
68766;DHT22;55756;45.582;11.484;2023-04-25T03:29:04;15.60;67.80
68766;DHT22;55756;45.582;11.484;2023-04-25T03:31:31;15.60;68.00
68766;DHT22;55756;45.582;11.484;2023-04-25T03:33:56;15.60;68.00
68766;DHT22;55756;45.582;11.484;2023-04-25T03:36:23;15.60;68.10
68766;DHT22;55756;45.582;11.484;2023-04-25T03:38:49;15.60;68.00
68766;DHT22;55756;45.582;11.484;2023-04-25T03:41:16;15.70;67.90
68766;DHT22;55756;45.582;11.484;2023-04-25T03:43:49;15.80;67.80
68766;DHT22;55756;45.582;11.484;2023-04-25T03:46:16;15.70;68.00
68766;DHT22;55756;45.582;11.484;2023-04-25T03:48:42;15.70;68.10
68766;DHT22;55756;45.582;11.484;2023-04-25T03:51:10;15.70;67.90
68766;DHT22;55756;45.582;11.484;2023-04-25T03:53:41;15.70;68.00
68766;DHT22;55756;45.582;11.484;2023-04-25T03:56:30;15.70;67.90
68766;DHT22;55756;45.582;11.484;2023-04-25T03:59:02;15.70;67.90
68766;DHT22;55756;45.582;11.484;2023-04-25T04:01:29;15.70;67.70
68766;DHT22;55756;45.582;11.484;2023-04-25T04:03:55;15.70;67.80
68766;DHT22;55756;45.582;11.484;2023-04-25T04:06:20;15.70;67.80
68766;DHT22;55756;45.582;11.484;2023-04-25T04:08:51;15.70;67.50
68766;DHT22;55756;45.582;11.484;2023-04-25T04:11:16;15.70;67.60
68766;DHT22;55756;45.582;11.484;2023-04-25T04:13:42;15.70;67.60
68766;DHT22;55756;45.582;11.484;2023-04-25T04:16:08;15.70;67.90
68766;DHT22;55756;45.582;11.484;2023-04-25T04:18:34;15.70;68.00
68766;DHT22;55756;45.582;11.484;2023-04-25T04:21:01;15.70;68.30
68766;DHT22;55756;45.582;11.484;2023-04-25T04:23:29;15.70;68.30
68766;DHT22;55756;45.582;11.484;2023-04-25T04:25:57;15.70;68.40
68766;DHT22;55756;45.582;11.484;2023-04-25T04:28:40;15.70;68.40
68766;DHT22;55756;45.582;11.484;2023-04-25T04:31:22;15.70;68.50
68766;DHT22;55756;45.582;11.484;2023-04-25T04:33:48;15.70;68.40
68766;DHT22;55756;45.582;11.484;2023-04-25T04:36:15;15.60;68.50
68766;DHT22;55756;45.582;11.484;2023-04-25T04:38:41;15.70;68.60
68766;DHT22;55756;45.582;11.484;2023-04-25T04:41:12;15.70;68.50
68766;DHT22;55756;45.582;11.484;2023-04-25T04:44:07;15.70;68.70
68766;DHT22;55756;45.582;11.484;2023-04-25T04:46:54;15.70;69.10
68766;DHT22;55756;45.582;11.484;2023-04-25T04:49:43;15.80;69.00
68766;DHT22;55756;45.582;11.484;2023-04-25T04:52:39;15.70;69.20
68766;DHT22;55756;45.582;11.484;2023-04-25T04:55:36;15.70;69.60
68766;DHT22;55756;45.582;11.484;2023-04-25T04:58:21;15.70;69.80
68766;DHT22;55756;45.582;11.484;2023-04-25T05:00:54;15.90;69.50
68766;DHT22;55756;45.582;11.484;2023-04-25T05:03:41;15.80;69.30
68766;DHT22;55756;45.582;11.484;2023-04-25T05:06:42;15.70;69.60
68766;DHT22;55756;45.582;11.484;2023-04-25T05:09:41;15.70;69.80
68766;DHT22;55756;45.582;11.484;2023-04-25T05:12:25;15.70;69.80
68766;DHT22;55756;45.582;11.484;2023-04-25T05:14:51;15.60;69.70
68766;DHT22;55756;45.582;11.484;2023-04-25T05:17:39;15.60;69.70
68766;DHT22;55756;45.582;11.484;2023-04-25T05:20:19;15.70;69.50
68766;DHT22;55756;45.582;11.484;2023-04-25T05:23:04;15.70;69.20
68766;DHT22;55756;45.582;11.484;2023-04-25T05:25:56;15.60;69.10
68766;DHT22;55756;45.582;11.484;2023-04-25T05:28:37;15.70;68.60
68766;DHT22;55756;45.582;11.484;2023-04-25T05:31:21;15.60;68.50
68766;DHT22;55756;45.582;11.484;2023-04-25T05:33:52;15.60;68.30
68766;DHT22;55756;45.582;11.484;2023-04-25T05:36:19;15.60;68.40
68766;DHT22;55756;45.582;11.484;2023-04-25T05:38:45;15.60;68.30
68766;DHT22;55756;45.582;11.484;2023-04-25T05:41:35;15.50;68.80
68766;DHT22;55756;45.582;11.484;2023-04-25T05:44:18;15.40;69.00
68766;DHT22;55756;45.582;11.484;2023-04-25T05:47:00;15.40;69.10
68766;DHT22;55756;45.582;11.484;2023-04-25T05:49:41;15.50;69.20
68766;DHT22;55756;45.582;11.484;2023-04-25T05:52:28;15.40;69.20
68766;DHT22;55756;45.582;11.484;2023-04-25T05:55:04;15.40;69.30
68766;DHT22;55756;45.582;11.484;2023-04-25T05:57:31;15.40;69.40
68766;DHT22;55756;45.582;11.484;2023-04-25T05:59:57;15.40;69.50
68766;DHT22;55756;45.582;11.484;2023-04-25T06:02:38;15.40;69.20
68766;DHT22;55756;45.582;11.484;2023-04-25T06:05:05;15.30;69.00
68766;DHT22;55756;45.582;11.484;2023-04-25T06:07:31;15.30;69.10
68766;DHT22;55756;45.582;11.484;2023-04-25T06:09:56;15.30;68.80
68766;DHT22;55756;45.582;11.484;2023-04-25T06:12:22;15.20;69.20
68766;DHT22;55756;45.582;11.484;2023-04-25T06:14:50;15.20;69.50
68766;DHT22;55756;45.582;11.484;2023-04-25T06:17:16;15.20;69.60
68766;DHT22;55756;45.582;11.484;2023-04-25T06:19:42;15.20;69.80
68766;DHT22;55756;45.582;11.484;2023-04-25T06:22:08;15.20;69.40
68766;DHT22;55756;45.582;11.484;2023-04-25T06:24:34;15.10;69.30
68766;DHT22;55756;45.582;11.484;2023-04-25T06:27:03;15.10;68.90
68766;DHT22;55756;45.582;11.484;2023-04-25T06:29:29;15.00;69.10
68766;DHT22;55756;45.582;11.484;2023-04-25T06:31:54;15.00;69.20
68766;DHT22;55756;45.582;11.484;2023-04-25T06:34:21;15.00;69.60
68766;DHT22;55756;45.582;11.484;2023-04-25T06:36:47;15.00;69.50
68766;DHT22;55756;45.582;11.484;2023-04-25T06:39:15;15.00;69.50
68766;DHT22;55756;45.582;11.484;2023-04-25T06:41:41;15.00;69.60
68766;DHT22;55756;45.582;11.484;2023-04-25T06:44:14;15.00;69.70
68766;DHT22;55756;45.582;11.484;2023-04-25T06:46:50;15.10;69.90
68766;DHT22;55756;45.582;11.484;2023-04-25T06:49:15;15.10;70.00
68766;DHT22;55756;45.582;11.484;2023-04-25T06:51:41;15.10;69.70
68766;DHT22;55756;45.582;11.484;2023-04-25T06:54:07;15.00;69.50
68766;DHT22;55756;45.582;11.484;2023-04-25T06:56:40;14.90;69.50
68766;DHT22;55756;45.582;11.484;2023-04-25T06:59:11;14.90;69.40
68766;DHT22;55756;45.582;11.484;2023-04-25T07:01:39;15.00;69.10
68766;DHT22;55756;45.582;11.484;2023-04-25T07:04:10;15.00;68.80
68766;DHT22;55756;45.582;11.484;2023-04-25T07:06:42;14.90;69.20
68766;DHT22;55756;45.582;11.484;2023-04-25T07:09:09;14.90;69.50
68766;DHT22;55756;45.582;11.484;2023-04-25T07:11:39;14.90;69.80
68766;DHT22;55756;45.582;11.484;2023-04-25T07:14:05;14.90;69.80
68766;DHT22;55756;45.582;11.484;2023-04-25T07:16:31;14.90;69.80
68766;DHT22;55756;45.582;11.484;2023-04-25T07:18:59;14.90;69.80
68766;DHT22;55756;45.582;11.484;2023-04-25T07:21:25;14.90;70.10
68766;DHT22;55756;45.582;11.484;2023-04-25T07:23:52;14.90;70.10
68766;DHT22;55756;45.582;11.484;2023-04-25T07:26:23;14.90;70.00
68766;DHT22;55756;45.582;11.484;2023-04-25T07:29:07;14.90;69.70
68766;DHT22;55756;45.582;11.484;2023-04-25T07:31:33;14.80;69.50
68766;DHT22;55756;45.582;11.484;2023-04-25T07:34:00;14.80;69.40
68766;DHT22;55756;45.582;11.484;2023-04-25T07:36:26;14.80;69.10
68766;DHT22;55756;45.582;11.484;2023-04-25T07:38:52;14.80;68.80
68766;DHT22;55756;45.582;11.484;2023-04-25T07:41:18;14.80;69.00
68766;DHT22;55756;45.582;11.484;2023-04-25T07:43:44;14.80;69.00
68766;DHT22;55756;45.582;11.484;2023-04-25T07:46:10;14.80;69.10
68766;DHT22;55756;45.582;11.484;2023-04-25T07:48:37;14.70;69.00
68766;DHT22;55756;45.582;11.484;2023-04-25T07:51:03;14.70;68.70
68766;DHT22;55756;45.582;11.484;2023-04-25T07:53:31;14.70;68.60
68766;DHT22;55756;45.582;11.484;2023-04-25T07:56:03;14.70;68.50
68766;DHT22;55756;45.582;11.484;2023-04-25T07:58:32;14.70;68.50
68766;DHT22;55756;45.582;11.484;2023-04-25T08:01:00;14.70;68.50
68766;DHT22;55756;45.582;11.484;2023-04-25T08:03:58;14.70;68.50
68766;DHT22;55756;45.582;11.484;2023-04-25T08:06:42;14.60;68.90
68766;DHT22;55756;45.582;11.484;2023-04-25T08:09:14;14.60;69.10
68766;DHT22;55756;45.582;11.484;2023-04-25T08:11:41;14.70;69.20
68766;DHT22;55756;45.582;11.484;2023-04-25T08:14:11;14.70;69.30
68766;DHT22;55756;45.582;11.484;2023-04-25T08:16:38;14.70;69.20
68766;DHT22;55756;45.582;11.484;2023-04-25T08:19:04;14.70;69.00
68766;DHT22;55756;45.582;11.484;2023-04-25T08:21:31;14.70;69.10
68766;DHT22;55756;45.582;11.484;2023-04-25T08:24:00;14.70;68.50
68766;DHT22;55756;45.582;11.484;2023-04-25T08:26:30;14.70;68.50
68766;DHT22;55756;45.582;11.484;2023-04-25T08:28:58;14.80;68.80
68766;DHT22;55756;45.582;11.484;2023-04-25T08:31:23;14.80;69.00
68766;DHT22;55756;45.582;11.484;2023-04-25T08:33:58;14.80;68.50
68766;DHT22;55756;45.582;11.484;2023-04-25T08:36:33;14.80;68.30
68766;DHT22;55756;45.582;11.484;2023-04-25T08:38:59;14.80;68.30
68766;DHT22;55756;45.582;11.484;2023-04-25T08:41:25;14.80;68.90
68766;DHT22;55756;45.582;11.484;2023-04-25T08:43:53;14.90;69.70
68766;DHT22;55756;45.582;11.484;2023-04-25T08:46:21;15.00;70.30
68766;DHT22;55756;45.582;11.484;2023-04-25T08:49:19;15.00;70.00
68766;DHT22;55756;45.582;11.484;2023-04-25T08:51:46;15.00;70.50
68766;DHT22;55756;45.582;11.484;2023-04-25T08:54:14;15.10;69.80
68766;DHT22;55756;45.582;11.484;2023-04-25T08:56:43;15.20;69.60
68766;DHT22;55756;45.582;11.484;2023-04-25T08:59:11;15.20;69.20
68766;DHT22;55756;45.582;11.484;2023-04-25T09:01:37;15.30;68.80
68766;DHT22;55756;45.582;11.484;2023-04-25T09:04:04;15.40;67.70
68766;DHT22;55756;45.582;11.484;2023-04-25T09:06:30;15.50;68.00
68766;DHT22;55756;45.582;11.484;2023-04-25T09:09:04;15.60;67.50
68766;DHT22;55756;45.582;11.484;2023-04-25T09:11:31;15.60;67.30
68766;DHT22;55756;45.582;11.484;2023-04-25T09:14:20;15.80;68.20
68766;DHT22;55756;45.582;11.484;2023-04-25T09:17:21;15.80;67.80
68766;DHT22;55756;45.582;11.484;2023-04-25T09:19:50;15.80;66.50
68766;DHT22;55756;45.582;11.484;2023-04-25T09:22:26;15.80;65.00
68766;DHT22;55756;45.582;11.484;2023-04-25T09:24:52;15.80;64.00
68766;DHT22;55756;45.582;11.484;2023-04-25T09:27:21;15.80;63.80
68766;DHT22;55756;45.582;11.484;2023-04-25T09:30:15;15.80;64.60
68766;DHT22;55756;45.582;11.484;2023-04-25T09:33:11;15.80;64.60
68766;DHT22;55756;45.582;11.484;2023-04-25T09:35:43;15.80;64.50
68766;DHT22;55756;45.582;11.484;2023-04-25T09:38:18;15.80;65.40
68766;DHT22;55756;45.582;11.484;2023-04-25T09:41:13;15.90;66.20
68766;DHT22;55756;45.582;11.484;2023-04-25T09:43:45;15.90;65.40
68766;DHT22;55756;45.582;11.484;2023-04-25T09:46:12;15.90;64.50
68766;DHT22;55756;45.582;11.484;2023-04-25T09:48:49;16.00;64.60
68766;DHT22;55756;45.582;11.484;2023-04-25T09:51:18;16.00;65.60
68766;DHT22;55756;45.582;11.484;2023-04-25T09:53:46;16.10;64.70
68766;DHT22;55756;45.582;11.484;2023-04-25T09:56:36;16.10;64.50
68766;DHT22;55756;45.582;11.484;2023-04-25T09:59:07;16.20;66.30
68766;DHT22;55756;45.582;11.484;2023-04-25T10:01:37;16.20;66.40
68766;DHT22;55756;45.582;11.484;2023-04-25T10:04:12;16.20;65.90
68766;DHT22;55756;45.582;11.484;2023-04-25T10:07:01;16.30;65.60
68766;DHT22;55756;45.582;11.484;2023-04-25T10:09:29;16.30;64.70
68766;DHT22;55756;45.582;11.484;2023-04-25T10:11:59;16.40;63.80
68766;DHT22;55756;45.582;11.484;2023-04-25T10:14:26;16.40;63.60
68766;DHT22;55756;45.582;11.484;2023-04-25T10:16:56;16.40;63.60
68766;DHT22;55756;45.582;11.484;2023-04-25T10:19:23;16.50;63.80
68766;DHT22;55756;45.582;11.484;2023-04-25T10:22:10;16.60;63.70
68766;DHT22;55756;45.582;11.484;2023-04-25T10:24:38;16.70;63.60
68766;DHT22;55756;45.582;11.484;2023-04-25T10:27:05;16.70;63.00
68766;DHT22;55756;45.582;11.484;2023-04-25T10:29:31;16.70;62.80
68766;DHT22;55756;45.582;11.484;2023-04-25T10:31:57;16.80;63.30
68766;DHT22;55756;45.582;11.484;2023-04-25T10:34:25;16.80;63.80
68766;DHT22;55756;45.582;11.484;2023-04-25T10:37:03;16.90;63.10
68766;DHT22;55756;45.582;11.484;2023-04-25T10:39:29;16.90;61.70
68766;DHT22;55756;45.582;11.484;2023-04-25T10:41:58;16.90;61.90
68766;DHT22;55756;45.582;11.484;2023-04-25T10:44:28;16.90;61.40
68766;DHT22;55756;45.582;11.484;2023-04-25T10:46:59;16.90;61.10
68766;DHT22;55756;45.582;11.484;2023-04-25T10:49:33;16.80;61.20
68766;DHT22;55756;45.582;11.484;2023-04-25T10:54:43;17.00;61.60
68766;DHT22;55756;45.582;11.484;2023-04-25T10:57:44;17.00;62.40
68766;DHT22;55756;45.582;11.484;2023-04-25T11:00:14;17.10;62.10
68766;DHT22;55756;45.582;11.484;2023-04-25T11:02:42;17.10;61.40
68766;DHT22;55756;45.582;11.484;2023-04-25T11:05:11;17.20;61.30
68766;DHT22;55756;45.582;11.484;2023-04-25T11:07:50;17.20;61.30
68766;DHT22;55756;45.582;11.484;2023-04-25T11:10:17;17.30;60.70
68766;DHT22;55756;45.582;11.484;2023-04-25T11:12:45;17.30;60.50
68766;DHT22;55756;45.582;11.484;2023-04-25T11:15:11;17.30;59.70
68766;DHT22;55756;45.582;11.484;2023-04-25T11:17:36;17.30;59.10
68766;DHT22;55756;45.582;11.484;2023-04-25T11:20:02;17.30;58.80
68766;DHT22;55756;45.582;11.484;2023-04-25T11:22:33;17.40;58.50
68766;DHT22;55756;45.582;11.484;2023-04-25T11:25:05;17.40;58.40
68766;DHT22;55756;45.582;11.484;2023-04-25T11:27:31;17.40;57.70
68766;DHT22;55756;45.582;11.484;2023-04-25T11:29:57;17.40;57.80
68766;DHT22;55756;45.582;11.484;2023-04-25T11:32:24;17.40;58.30
68766;DHT22;55756;45.582;11.484;2023-04-25T11:34:49;17.40;57.90
68766;DHT22;55756;45.582;11.484;2023-04-25T11:37:15;17.40;58.20
68766;DHT22;55756;45.582;11.484;2023-04-25T11:39:45;17.40;58.70
68766;DHT22;55756;45.582;11.484;2023-04-25T11:42:13;17.40;58.70
68766;DHT22;55756;45.582;11.484;2023-04-25T11:44:40;17.40;58.80
68766;DHT22;55756;45.582;11.484;2023-04-25T11:47:06;17.40;58.70
68766;DHT22;55756;45.582;11.484;2023-04-25T11:49:32;17.30;58.50
68766;DHT22;55756;45.582;11.484;2023-04-25T11:51:58;17.40;58.60
68766;DHT22;55756;45.582;11.484;2023-04-25T11:54:23;17.40;58.40
68766;DHT22;55756;45.582;11.484;2023-04-25T11:56:49;17.40;58.10
68766;DHT22;55756;45.582;11.484;2023-04-25T11:59:15;17.40;58.20
68766;DHT22;55756;45.582;11.484;2023-04-25T12:01:48;17.40;58.30
68766;DHT22;55756;45.582;11.484;2023-04-25T12:04:18;17.40;58.50
68766;DHT22;55756;45.582;11.484;2023-04-25T12:06:45;17.40;57.60
68766;DHT22;55756;45.582;11.484;2023-04-25T12:09:15;17.40;56.80
68766;DHT22;55756;45.582;11.484;2023-04-25T12:11:52;17.40;56.60
68766;DHT22;55756;45.582;11.484;2023-04-25T12:14:23;17.50;56.20
68766;DHT22;55756;45.582;11.484;2023-04-25T12:16:54;17.50;56.90
68766;DHT22;55756;45.582;11.484;2023-04-25T12:19:21;17.50;57.20
68766;DHT22;55756;45.582;11.484;2023-04-25T12:27:16;17.50;56.00
68766;DHT22;55756;45.582;11.484;2023-04-25T12:38:06;17.50;56.00
68766;DHT22;55756;45.582;11.484;2023-04-25T12:40:43;17.50;56.20
68766;DHT22;55756;45.582;11.484;2023-04-25T12:43:34;17.50;55.90
68766;DHT22;55756;45.582;11.484;2023-04-25T12:46:04;17.50;56.60
68766;DHT22;55756;45.582;11.484;2023-04-25T12:48:47;17.50;56.50
68766;DHT22;55756;45.582;11.484;2023-04-25T12:51:19;17.50;56.40
68766;DHT22;55756;45.582;11.484;2023-04-25T12:53:45;17.50;56.90
68766;DHT22;55756;45.582;11.484;2023-04-25T12:56:16;17.50;57.30
68766;DHT22;55756;45.582;11.484;2023-04-25T12:58:42;17.40;56.90
68766;DHT22;55756;45.582;11.484;2023-04-25T13:01:09;17.40;57.00
68766;DHT22;55756;45.582;11.484;2023-04-25T13:03:35;17.40;56.70
68766;DHT22;55756;45.582;11.484;2023-04-25T13:06:01;17.40;57.00
68766;DHT22;55756;45.582;11.484;2023-04-25T13:08:27;17.40;56.90
68766;DHT22;55756;45.582;11.484;2023-04-25T13:10:52;17.40;56.60
68766;DHT22;55756;45.582;11.484;2023-04-25T13:13:24;17.30;56.50
68766;DHT22;55756;45.582;11.484;2023-04-25T13:15:52;17.30;56.60
68766;DHT22;55756;45.582;11.484;2023-04-25T13:18:21;17.30;56.90
68766;DHT22;55756;45.582;11.484;2023-04-25T13:21:14;17.20;57.40
68766;DHT22;55756;45.582;11.484;2023-04-25T13:23:40;17.20;57.10
68766;DHT22;55756;45.582;11.484;2023-04-25T13:26:08;17.20;57.00
68766;DHT22;55756;45.582;11.484;2023-04-25T13:28:34;17.10;57.30
68766;DHT22;55756;45.582;11.484;2023-04-25T13:31:00;17.10;58.10
68766;DHT22;55756;45.582;11.484;2023-04-25T13:33:25;17.10;58.40
68766;DHT22;55756;45.582;11.484;2023-04-25T13:35:51;17.00;58.80
68766;DHT22;55756;45.582;11.484;2023-04-25T13:38:21;17.00;59.00
68766;DHT22;55756;45.582;11.484;2023-04-25T13:40:48;17.00;59.50
68766;DHT22;55756;45.582;11.484;2023-04-25T13:43:14;17.00;59.50
68766;DHT22;55756;45.582;11.484;2023-04-25T13:45:40;17.00;59.70
68766;DHT22;55756;45.582;11.484;2023-04-25T13:48:06;17.00;59.20
68766;DHT22;55756;45.582;11.484;2023-04-25T13:50:32;17.00;59.90
68766;DHT22;55756;45.582;11.484;2023-04-25T13:52:57;17.00;61.00
68766;DHT22;55756;45.582;11.484;2023-04-25T13:55:23;17.00;61.90
68766;DHT22;55756;45.582;11.484;2023-04-25T13:57:49;16.90;62.70
68766;DHT22;55756;45.582;11.484;2023-04-25T14:00:15;16.90;63.30
68766;DHT22;55756;45.582;11.484;2023-04-25T14:02:41;16.80;63.80
68766;DHT22;55756;45.582;11.484;2023-04-25T14:05:07;16.70;64.00
68766;DHT22;55756;45.582;11.484;2023-04-25T14:07:36;16.60;64.60
68766;DHT22;55756;45.582;11.484;2023-04-25T14:10:02;16.50;65.30
68766;DHT22;55756;45.582;11.484;2023-04-25T14:12:29;16.40;65.70
68766;DHT22;55756;45.582;11.484;2023-04-25T14:14:55;16.40;66.10
68766;DHT22;55756;45.582;11.484;2023-04-25T14:17:21;16.40;65.90
68766;DHT22;55756;45.582;11.484;2023-04-25T14:19:47;16.40;65.40
68766;DHT22;55756;45.582;11.484;2023-04-25T14:22:14;16.30;65.40
68766;DHT22;55756;45.582;11.484;2023-04-25T14:24:43;16.20;65.60
68766;DHT22;55756;45.582;11.484;2023-04-25T14:27:09;16.20;66.10
68766;DHT22;55756;45.582;11.484;2023-04-25T14:29:35;16.20;66.10
68766;DHT22;55756;45.582;11.484;2023-04-25T14:32:00;16.20;66.00
68766;DHT22;55756;45.582;11.484;2023-04-25T14:34:27;16.20;66.40
68766;DHT22;55756;45.582;11.484;2023-04-25T14:36:53;16.20;66.60
68766;DHT22;55756;45.582;11.484;2023-04-25T14:39:19;16.20;67.00
68766;DHT22;55756;45.582;11.484;2023-04-25T14:41:45;16.20;67.00
68766;DHT22;55756;45.582;11.484;2023-04-25T14:44:11;16.20;67.40
68766;DHT22;55756;45.582;11.484;2023-04-25T14:46:37;16.20;67.40
68766;DHT22;55756;45.582;11.484;2023-04-25T14:49:03;16.20;67.20
68766;DHT22;55756;45.582;11.484;2023-04-25T14:51:29;16.20;67.20
68766;DHT22;55756;45.582;11.484;2023-04-25T14:53:55;16.20;67.20
68766;DHT22;55756;45.582;11.484;2023-04-25T14:56:21;16.20;67.10
68766;DHT22;55756;45.582;11.484;2023-04-25T14:58:47;16.20;66.70
68766;DHT22;55756;45.582;11.484;2023-04-25T15:01:13;16.20;66.40
68766;DHT22;55756;45.582;11.484;2023-04-25T15:03:40;16.20;66.30
68766;DHT22;55756;45.582;11.484;2023-04-25T15:06:06;16.30;65.70
68766;DHT22;55756;45.582;11.484;2023-04-25T15:08:32;16.30;65.50
68766;DHT22;55756;45.582;11.484;2023-04-25T15:10:58;16.30;66.00
68766;DHT22;55756;45.582;11.484;2023-04-25T15:13:24;16.30;65.80
68766;DHT22;55756;45.582;11.484;2023-04-25T15:15:51;16.30;65.60
68766;DHT22;55756;45.582;11.484;2023-04-25T15:18:21;16.40;65.10
68766;DHT22;55756;45.582;11.484;2023-04-25T15:20:53;16.50;64.50
68766;DHT22;55756;45.582;11.484;2023-04-25T15:23:20;16.50;63.40
68766;DHT22;55756;45.582;11.484;2023-04-25T15:25:47;16.50;63.40
68766;DHT22;55756;45.582;11.484;2023-04-25T15:28:13;16.50;62.50
68766;DHT22;55756;45.582;11.484;2023-04-25T15:30:43;16.50;62.50
68766;DHT22;55756;45.582;11.484;2023-04-25T15:33:08;16.60;63.00
68766;DHT22;55756;45.582;11.484;2023-04-25T15:35:34;16.60;62.20
68766;DHT22;55756;45.582;11.484;2023-04-25T15:38:00;16.70;62.00
68766;DHT22;55756;45.582;11.484;2023-04-25T15:40:26;16.70;61.60
68766;DHT22;55756;45.582;11.484;2023-04-25T15:42:52;16.70;61.80
68766;DHT22;55756;45.582;11.484;2023-04-25T15:45:20;16.70;61.60
68766;DHT22;55756;45.582;11.484;2023-04-25T15:47:47;16.80;61.30
68766;DHT22;55756;45.582;11.484;2023-04-25T15:50:13;16.80;60.30